Time;durP1;ratioP1;P1;durP2;ratioP2;P2;SDS_P1;SDS_P2;PMS_P1;PMS_P2;Temp;Humidity;BMP_temperature;BMP_pressure;BME280_temperature;BME280_humidity;BME280_pressure;Samples;Min_cycle;Max_cycle;Signal;HPM_P1;HPM_P2
2023/07/31 00:19:50;;;;;;;2.90;2.70;;;17.10;99.90;;;;;;1080924;22;21473;-76
2023/07/31 00:30:12;;;;;;;3.73;1.93;;;17.00;99.90;;;;;;4923628;29;20933;-80
2023/07/31 00:36:41;;;;;;;3.20;2.27;;;16.90;99.90;;;;;;4790892;29;20482;-79
2023/07/31 00:42:33;;;;;;;2.50;2.30;;;16.90;99.90;;;;;;4964186;28;20789;-80
2023/07/31 00:49:19;;;;;;;2.23;2.00;;;16.80;99.90;;;;;;4952035;28;20442;-79
2023/07/31 00:58:07;;;;;;;2.53;2.33;;;16.60;99.90;;;;;;4959999;28;20463;-79
2023/07/31 01:00:55;;;;;;;2.33;2.13;;;16.60;99.90;;;;;;4961598;29;20859;-80
2023/07/31 01:04:05;;;;;;;5.60;3.10;;;16.60;99.90;;;;;;4962596;28;20450;-79
2023/07/31 01:10:04;;;;;;;2.03;1.83;;;16.60;99.90;;;;;;4958325;28;20822;-79
2023/07/31 01:13:03;;;;;;;2.50;2.30;;;16.50;99.90;;;;;;4961223;28;20450;-79
2023/07/31 01:15:47;;;;;;;3.10;2.60;;;16.50;99.90;;;;;;4961663;28;20558;-78
2023/07/31 01:18:38;;;;;;;6.37;3.00;;;16.40;99.90;;;;;;4964283;28;20446;-78
2023/07/31 01:21:50;;;;;;;4.80;2.50;;;16.40;99.90;;;;;;4966359;28;20462;-80
2023/07/31 01:25:11;;;;;;;2.43;2.20;;;16.40;99.90;;;;;;4955411;29;20458;-78
2023/07/31 01:28:18;;;;;;;2.50;2.40;;;16.40;99.90;;;;;;4962865;28;20454;-79
2023/07/31 01:40:28;;;;;;;2.63;2.33;;;16.30;99.90;;;;;;4944022;29;20435;-78
2023/07/31 01:43:37;;;;;;;2.93;2.73;;;16.20;99.90;;;;;;4942438;28;20463;-78
2023/07/31 01:46:23;;;;;;;3.43;2.30;;;16.20;99.90;;;;;;4977307;29;20482;-80
2023/07/31 01:52:30;;;;;;;;;;;;;;;;;;;;;
2023/07/31 01:55:39;;;;;;;2.60;2.40;;;16.10;99.90;;;;;;4972057;28;20476;-79
2023/07/31 01:58:53;;;;;;;5.90;2.60;;;16.10;99.90;;;;;;4938239;29;20504;-78
2023/07/31 02:05:03;;;;;;;;;;;;;;;;;;;;;
2023/07/31 02:10:41;;;;;;;2.67;2.37;;;16.10;99.90;;;;;;4941838;29;20431;-79
2023/07/31 02:17:02;;;;;;;4.07;2.40;;;16.10;99.90;;;;;;4948226;29;20514;-79
2023/07/31 02:23:11;;;;;;;2.50;2.30;;;16.10;99.90;;;;;;4947493;29;20469;-78
2023/07/31 02:26:47;;;;;;;2.70;2.50;;;16.10;99.90;;;;;;4948671;29;20482;-78
2023/07/31 02:32:55;;;;;;;2.30;2.10;;;16.10;99.90;;;;;;4914706;29;20478;-80
2023/07/31 02:39:03;;;;;;;3.00;2.70;;;16.10;99.90;;;;;;4941580;29;20435;-79
2023/07/31 02:42:04;;;;;;;4.13;2.53;;;16.10;99.90;;;;;;4944441;29;20462;-78
2023/07/31 02:45:08;;;;;;;2.57;2.37;;;16.10;99.90;;;;;;4957492;28;20470;-78
2023/07/31 02:47:52;;;;;;;2.20;2.10;;;16.00;99.90;;;;;;4983165;28;20453;-78
2023/07/31 02:50:50;;;;;;;3.97;2.50;;;16.00;99.90;;;;;;4983650;28;20465;-78
2023/07/31 02:53:34;;;;;;;5.03;2.70;;;16.00;99.90;;;;;;4977973;28;20556;-80
2023/07/31 02:56:28;;;;;;;2.57;2.37;;;16.00;99.90;;;;;;4982923;28;20477;-78
2023/07/31 02:59:14;;;;;;;2.73;2.50;;;16.00;99.90;;;;;;4987145;28;20496;-78
2023/07/31 03:05:40;;;;;;;2.43;2.30;;;16.00;99.90;;;;;;4985231;28;20473;-79
2023/07/31 03:08:20;;;;;;;2.80;2.30;;;16.00;99.90;;;;;;4991769;28;20453;-79
2023/07/31 03:11:03;;;;;;;2.57;2.37;;;16.00;99.90;;;;;;4990205;28;20497;-78
2023/07/31 03:14:04;;;;;;;3.97;2.93;;;16.00;99.90;;;;;;4990077;28;20449;-78
2023/07/31 03:20:25;;;;;;;2.30;2.10;;;15.90;99.90;;;;;;4988521;28;20453;-80
2023/07/31 03:26:41;;;;;;;2.63;2.40;;;15.90;99.90;;;;;;4984730;28;20453;-77
2023/07/31 03:29:17;;;;;;;3.03;2.63;;;15.90;99.90;;;;;;4988595;28;20545;-80
2023/07/31 03:31:53;;;;;;;4.23;2.33;;;15.90;99.90;;;;;;4985943;28;20480;-77
2023/07/31 03:43:51;;;;;;;2.70;2.50;;;15.80;99.90;;;;;;4976397;28;20445;-78
2023/07/31 03:46:37;;;;;;;3.13;2.83;;;15.80;99.90;;;;;;4978756;28;20476;-78
2023/07/31 03:49:47;;;;;;;4.47;2.53;;;15.80;99.90;;;;;;4977547;28;20465;-80
2023/07/31 03:52:43;;;;;;;4.90;2.70;;;15.80;99.90;;;;;;4978092;28;20457;-79
2023/07/31 03:55:45;;;;;;;3.13;2.83;;;15.90;99.90;;;;;;4978144;28;20508;-79
2023/07/31 03:58:35;;;;;;;4.30;2.50;;;15.90;99.90;;;;;;4978160;28;20488;-79
2023/07/31 04:01:24;;;;;;;3.80;2.40;;;15.80;99.90;;;;;;4978048;28;20477;-78
2023/07/31 04:04:36;;;;;;;4.50;2.83;;;15.80;99.90;;;;;;4978092;28;20453;-79
2023/07/31 04:07:29;;;;;;;2.47;2.27;;;15.90;99.90;;;;;;4978095;28;20449;-79
2023/07/31 04:13:57;;;;;;;2.80;2.60;;;15.90;99.90;;;;;;4976782;28;20437;-78
2023/07/31 04:17:23;;;;;;;2.70;2.50;;;15.90;99.90;;;;;;4976410;28;20484;-78
2023/07/31 04:23:18;;;;;;;2.50;2.30;;;16.00;99.90;;;;;;4917323;29;20456;-79
2023/07/31 04:36:09;;;;;;;3.57;2.60;;;16.20;99.90;;;;;;4931802;29;20475;-78
2023/07/31 04:38:42;;;;;;;2.53;2.33;;;16.20;99.90;;;;;;4929200;29;20451;-77
2023/07/31 04:45:03;;;;;;;7.37;2.90;;;16.20;99.90;;;;;;4916383;29;20812;-77
2023/07/31 04:51:28;;;;;;;8.93;5.47;;;16.30;99.90;;;;;;4934259;29;20610;-78
2023/07/31 05:38:25;;;;;;;2.77;2.47;;;17.00;99.90;;;;;;6090956;23;20470;-78
2023/07/31 06:09:24;;;;;;;4.10;2.80;;;17.80;99.90;;;;;;5901778;24;20405;-80
2023/07/31 06:19:22;;;;;;;2.20;2.00;;;18.30;99.90;;;;;;6280236;22;20447;-81
2023/07/31 06:32:55;;;;;;;4.47;2.70;;;18.90;99.90;;;;;;6146993;23;20395;-79
2023/07/31 06:46:47;;;;;;;;;;;;;;;;;;;;;
2023/07/31 06:52:50;;;;;;;2.27;2.07;;;19.40;99.90;;;;;;6278444;22;20402;-79
2023/07/31 06:59:35;;;;;;;3.33;2.57;;;19.60;99.90;;;;;;6153743;23;20453;-79
2023/07/31 07:02:36;;;;;;;5.40;2.40;;;19.60;99.90;;;;;;6145539;23;20447;-80
2023/07/31 07:05:25;;;;;;;2.90;2.27;;;19.90;99.90;;;;;;6186482;23;20422;-78
2023/07/31 07:08:16;;;;;;;2.97;2.30;;;19.60;99.90;;;;;;6260533;22;20403;-81
2023/07/31 07:11:12;;;;;;;3.13;2.50;;;19.70;99.90;;;;;;6279829;22;20404;-79
2023/07/31 07:14:03;;;;;;;2.93;2.10;;;19.80;99.90;;;;;;6279491;22;20427;-79
2023/07/31 07:23:38;;;;;;;4.00;2.50;;;20.20;99.90;;;;;;6039456;23;20424;-80
2023/07/31 07:26:15;;;;;;;4.57;2.70;;;20.30;99.90;;;;;;6276381;22;20428;-81
2023/07/31 07:28:54;;;;;;;3.40;2.03;;;20.40;99.90;;;;;;6279878;22;20434;-79
2023/07/31 07:34:34;;;;;;;3.90;2.57;;;20.70;99.90;;;;;;6273252;22;20413;-80
2023/07/31 07:37:32;;;;;;;;;;;;;;;;;;;;;
2023/07/31 07:44:02;;;;;;;3.43;2.77;;;20.80;99.90;;;;;;6283908;22;20413;-79
2023/07/31 07:46:58;;;;;;;;;;;;;;;;;;;;;
2023/07/31 07:49:57;;;;;;;5.63;2.90;;;20.80;99.90;;;;;;6252565;23;20389;-78
2023/07/31 07:52:28;;;;;;;5.57;2.90;;;20.80;99.90;;;;;;6253438;22;20406;-79
2023/07/31 07:55:11;;;;;;;3.80;2.80;;;20.90;99.90;;;;;;6253748;23;20429;-78
2023/07/31 07:57:46;;;;;;;2.63;2.20;;;20.80;99.90;;;;;;6249401;23;20511;-79
2023/07/31 08:00:21;;;;;;;2.90;2.43;;;20.90;99.90;;;;;;6248137;22;20836;-80
2023/07/31 08:02:57;;;;;;;9.30;4.07;;;21.30;99.90;;;;;;6247644;22;20416;-80
2023/07/31 08:05:47;;;;;;;5.03;3.00;;;21.30;99.90;;;;;;6253011;22;20502;-79
2023/07/31 08:08:54;;;;;;;6.13;2.57;;;21.40;99.90;;;;;;6256711;22;20406;-79
2023/07/31 08:11:44;;;;;;;3.73;2.47;;;21.60;99.90;;;;;;6256694;22;20439;-78
2023/07/31 08:14:39;;;;;;;4.50;2.90;;;21.60;99.90;;;;;;6255639;22;20512;-79
2023/07/31 08:17:43;;;;;;;5.23;2.40;;;21.70;99.90;;;;;;6255179;22;20424;-81
2023/07/31 08:24:00;;;;;;;2.73;2.43;;;21.70;99.90;;;;;;6248371;22;20410;-80
2023/07/31 08:27:09;;;;;;;8.27;2.63;;;21.60;99.90;;;;;;6255346;22;20406;-79
2023/07/31 08:29:40;;;;;;;4.80;2.20;;;21.90;99.90;;;;;;6256679;22;20429;-78
2023/07/31 08:32:13;;;;;;;5.80;2.73;;;21.80;99.90;;;;;;6258621;23;20382;-79
2023/07/31 08:34:43;;;;;;;7.13;3.67;;;21.80;99.90;;;;;;6256802;23;20425;-79
2023/07/31 08:37:25;;;;;;;6.43;3.27;;;22.10;99.90;;;;;;6255476;22;20512;-81
2023/07/31 08:40:04;;;;;;;3.63;2.57;;;22.30;99.90;;;;;;6253509;23;20439;-81
2023/07/31 08:43:01;;;;;;;4.60;2.47;;;22.30;99.90;;;;;;6256606;23;20449;-81
2023/07/31 08:49:24;;;;;;;4.80;2.50;;;22.20;99.90;;;;;;6164131;23;20405;-79
2023/07/31 08:52:23;;;;;;;;;;;;;;;;;;;;;
2023/07/31 08:58:45;;;;;;;2.63;2.50;;;22.80;99.90;;;;;;6250854;22;20408;-80
2023/07/31 09:02:06;;;;;;;4.90;2.30;;;22.80;99.90;;;;;;6154538;23;20405;-78
2023/07/31 09:05:14;;;;;;;4.30;2.83;;;23.00;99.90;;;;;;6244092;22;20425;-78
2023/07/31 09:14:31;;;;;;;3.30;2.97;;;23.20;99.90;;;;;;6130420;23;20392;-78
2023/07/31 09:17:23;;;;;;;3.57;2.43;;;23.10;99.90;;;;;;6131025;23;20469;-80
2023/07/31 09:20:22;;;;;;;5.20;3.00;;;22.80;99.90;;;;;;6221418;23;20529;-79
2023/07/31 09:23:16;;;;;;;5.17;2.90;;;23.30;99.90;;;;;;6226089;23;20760;-79
2023/07/31 09:25:54;;;;;;;3.97;2.87;;;23.20;99.90;;;;;;6252685;22;20456;-78
2023/07/31 09:28:53;;;;;;;5.07;2.20;;;23.50;99.90;;;;;;6253266;23;20729;-80
2023/07/31 09:31:57;;;;;;;4.50;2.23;;;23.20;99.90;;;;;;6251766;22;20405;-78
2023/07/31 09:37:53;;;;;;;4.13;2.43;;;22.90;99.90;;;;;;6249836;22;20922;-79
2023/07/31 09:40:54;;;;;;;4.13;3.27;;;22.90;99.90;;;;;;6251664;23;20440;-81
2023/07/31 09:43:32;;;;;;;3.10;2.67;;;22.90;99.90;;;;;;6251446;23;20432;-80
2023/07/31 09:46:19;;;;;;;4.93;2.77;;;22.90;99.90;;;;;;6250465;22;20482;-79
2023/07/31 09:49:26;;;;;;;4.70;2.57;;;23.10;99.90;;;;;;6254870;23;20663;-79
2023/07/31 09:52:03;;;;;;;3.27;2.60;;;23.20;99.90;;;;;;6252472;22;20466;-79
2023/07/31 09:54:58;;;;;;;;;;;;;;;;;;;;;
2023/07/31 09:57:41;;;;;;;7.77;2.97;;;23.90;99.90;;;;;;6253428;22;20412;-79
2023/07/31 10:00:17;;;;;;;2.70;2.50;;;24.40;99.90;;;;;;6252855;23;20429;-79
2023/07/31 10:02:58;;;;;;;2.50;2.30;;;24.50;99.90;;;;;;6252753;23;20421;-80
2023/07/31 10:05:43;;;;;;;5.13;3.10;;;24.20;99.90;;;;;;6255423;22;20523;-81
2023/07/31 10:08:36;;;;;;;4.07;2.60;;;23.90;99.90;;;;;;6257271;23;20409;-82
2023/07/31 10:11:21;;;;;;;3.57;2.77;;;24.10;99.90;;;;;;6258023;22;20417;-80
2023/07/31 10:17:21;;;;;;;5.80;3.30;;;23.90;99.90;;;;;;6258082;22;20898;-83
2023/07/31 10:20:20;;;;;;;4.10;2.60;;;24.00;99.90;;;;;;6262138;22;20507;-82
2023/07/31 10:23:12;;;;;;;2.83;2.60;;;23.70;99.90;;;;;;6261395;22;20488;-79
2023/07/31 10:26:02;;;;;;;4.80;2.30;;;24.10;99.90;;;;;;6260563;22;20432;-80
2023/07/31 10:28:51;;;;;;;4.27;2.90;;;24.40;99.90;;;;;;6254443;22;20406;-80
2023/07/31 10:32:00;;;;;;;3.87;2.80;;;24.00;99.90;;;;;;6254739;22;20409;-81
2023/07/31 10:34:59;;;;;;;5.80;2.57;;;24.20;99.90;;;;;;6253400;22;20432;-81
2023/07/31 10:37:41;;;;;;;3.67;3.37;;;24.30;99.90;;;;;;6252324;22;20409;-78
2023/07/31 10:40:32;;;;;;;4.40;2.87;;;24.20;99.90;;;;;;6253583;23;20463;-79
2023/07/31 10:43:03;;;;;;;3.77;3.07;;;24.20;99.90;;;;;;6252490;22;20414;-79
2023/07/31 10:45:55;;;;;;;4.03;2.57;;;24.00;99.90;;;;;;6251349;22;20425;-80
2023/07/31 10:48:41;;;;;;;5.73;3.40;;;24.40;99.90;;;;;;6251361;22;20409;-79
2023/07/31 10:54:26;;;;;;;3.53;2.60;;;24.60;99.90;;;;;;6219218;22;20540;-82
2023/07/31 10:57:04;;;;;;;6.67;2.53;;;24.20;99.90;;;;;;6251735;23;20417;-79
2023/07/31 10:59:53;;;;;;;3.23;2.50;;;23.80;99.90;;;;;;6252226;22;20443;-80
2023/07/31 11:03:06;;;;;;;4.00;2.60;;;23.70;99.90;;;;;;6251335;22;20414;-79
2023/07/31 11:05:58;;;;;;;2.80;2.40;;;24.40;99.90;;;;;;6250877;23;20483;-79
2023/07/31 11:08:33;;;;;;;5.37;2.90;;;25.30;99.90;;;;;;6252283;22;20413;-80
2023/07/31 11:11:12;;;;;;;2.33;2.13;;;25.30;99.90;;;;;;6251184;23;20408;-79
2023/07/31 11:14:06;;;;;;;3.00;2.50;;;25.20;99.90;;;;;;6252009;22;20400;-78
2023/07/31 11:16:41;;;;;;;2.97;2.40;;;25.20;99.90;;;;;;6248879;22;20423;-78
2023/07/31 11:19:17;;;;;;;3.40;2.70;;;25.30;99.90;;;;;;6252576;22;20452;-80
2023/07/31 11:21:56;;;;;;;2.67;2.40;;;25.00;99.90;;;;;;6252411;23;20389;-80
2023/07/31 11:24:34;;;;;;;3.70;2.67;;;25.20;99.90;;;;;;6251798;23;20946;-79
2023/07/31 11:27:25;;;;;;;3.67;2.93;;;25.00;99.90;;;;;;6251057;22;20420;-81
2023/07/31 11:30:07;;;;;;;3.20;2.90;;;24.40;99.90;;;;;;6253449;22;20903;-80
2023/07/31 11:32:42;;;;;;;2.70;2.50;;;24.50;99.90;;;;;;6256335;22;20473;-79
2023/07/31 11:35:35;;;;;;;3.30;2.90;;;24.60;99.90;;;;;;6256188;23;20429;-78
2023/07/31 11:38:31;;;;;;;3.43;2.80;;;24.50;99.90;;;;;;6254617;22;20929;-80
2023/07/31 11:41:15;;;;;;;4.80;3.30;;;24.60;99.90;;;;;;6258152;23;20558;-79
2023/07/31 11:46:43;;;;;;;5.43;3.30;;;23.70;99.90;;;;;;6237448;22;20460;-80
2023/07/31 11:49:20;;;;;;;4.23;2.80;;;23.80;99.90;;;;;;6253936;22;20416;-79
2023/07/31 11:52:04;;;;;;;3.13;2.83;;;23.90;99.90;;;;;;6253726;23;21186;-81
2023/07/31 11:54:41;;;;;;;5.00;3.17;;;24.20;99.90;;;;;;6252915;23;20942;-81
2023/07/31 11:57:45;;;;;;;4.60;3.30;;;24.20;99.90;;;;;;6253738;22;20879;-79
2023/07/31 12:06:20;;;;;;;3.60;3.03;;;24.60;99.90;;;;;;6248506;22;20430;-79
2023/07/31 12:09:11;;;;;;;3.83;3.40;;;24.60;99.90;;;;;;6254111;23;20415;-80
2023/07/31 12:11:59;;;;;;;6.03;3.40;;;24.40;99.90;;;;;;6252269;22;20413;-80
2023/07/31 12:15:11;;;;;;;7.27;3.20;;;24.90;99.90;;;;;;6252429;22;20463;-79
2023/07/31 12:17:56;;;;;;;3.20;2.90;;;24.70;99.90;;;;;;6249302;22;20816;-79
2023/07/31 12:24:15;;;;;;;3.83;2.63;;;24.50;99.90;;;;;;6243546;22;20393;-78
2023/07/31 12:29:53;;;;;;;5.27;3.20;;;24.30;99.90;;;;;;6240725;22;20397;-78
2023/07/31 12:32:42;;;;;;;5.97;3.00;;;24.40;99.90;;;;;;6245840;23;20462;-78
2023/07/31 12:35:39;;;;;;;3.80;3.03;;;24.20;99.90;;;;;;6245215;22;20428;-78
2023/07/31 12:38:49;;;;;;;4.70;2.50;;;24.20;99.90;;;;;;6244574;22;20432;-80
2023/07/31 12:41:50;;;;;;;3.30;3.00;;;23.90;99.90;;;;;;6244572;22;20441;-79
2023/07/31 12:44:40;;;;;;;3.00;2.80;;;23.50;99.90;;;;;;6247576;22;20480;-80
2023/07/31 12:47:30;;;;;;;5.80;3.20;;;23.70;99.90;;;;;;6250045;22;20793;-79
2023/07/31 12:50:03;;;;;;;4.27;2.80;;;23.60;99.90;;;;;;6260259;23;20413;-80
2023/07/31 12:52:41;;;;;;;8.20;3.00;;;23.70;99.90;;;;;;6256859;22;20496;-81
2023/07/31 12:55:38;;;;;;;3.20;2.80;;;23.40;99.90;;;;;;6252774;22;20452;-79
2023/07/31 12:58:14;;;;;;;6.90;3.30;;;23.20;99.90;;;;;;6252539;23;20438;-80
2023/07/31 13:00:57;;;;;;;4.70;3.00;;;23.20;99.90;;;;;;6253116;23;20457;-79
2023/07/31 13:03:41;;;;;;;3.90;3.20;;;23.00;99.90;;;;;;6253422;23;20580;-80
2023/07/31 13:06:34;;;;;;;6.03;3.43;;;23.20;99.90;;;;;;6257398;23;20425;-79
2023/07/31 13:09:17;;;;;;;5.93;3.40;;;23.40;99.90;;;;;;6258998;23;20402;-80
2023/07/31 13:12:03;;;;;;;4.10;3.10;;;23.50;99.90;;;;;;6257078;23;20440;-80
2023/07/31 13:17:57;;;;;;;7.10;2.90;;;23.30;99.90;;;;;;6260401;22;20404;-80
2023/07/31 13:21:23;;;;;;;3.43;2.80;;;23.30;99.90;;;;;;6255945;22;20448;-79
2023/07/31 13:27:12;;;;;;;4.27;3.50;;;23.50;99.90;;;;;;6250206;22;20406;-80
2023/07/31 13:30:19;;;;;;;3.50;3.10;;;23.50;99.90;;;;;;6254980;23;20412;-79
2023/07/31 13:33:16;;;;;;;3.90;3.60;;;23.80;99.90;;;;;;6256440;23;20459;-80
2023/07/31 13:39:43;;;;;;;3.67;3.23;;;24.40;99.90;;;;;;6254245;22;20484;-79
2023/07/31 13:55:41;;;;;;;3.13;2.50;;;24.40;99.90;;;;;;6246457;22;20504;-78
2023/07/31 13:58:34;;;;;;;3.60;2.80;;;24.40;99.90;;;;;;6251454;22;20894;-80
2023/07/31 14:01:33;;;;;;;3.10;2.80;;;24.60;99.90;;;;;;6254941;23;20469;-81
2023/07/31 14:07:43;;;;;;;5.37;3.07;;;24.70;99.90;;;;;;6247864;23;20401;-80
2023/07/31 14:10:24;;;;;;;3.10;2.80;;;24.40;99.90;;;;;;6253658;23;20412;-80
2023/07/31 14:13:19;;;;;;;3.00;2.80;;;24.10;99.90;;;;;;6252641;23;20431;-81
2023/07/31 14:16:14;;;;;;;3.13;2.83;;;24.10;99.90;;;;;;6254316;23;20425;-79
2023/07/31 14:19:09;;;;;;;3.13;2.50;;;24.20;99.90;;;;;;6256003;22;20417;-83
2023/07/31 14:22:03;;;;;;;3.07;2.77;;;24.20;99.90;;;;;;6253544;22;20439;-79
2023/07/31 14:24:39;;;;;;;3.80;2.80;;;24.20;99.90;;;;;;6252813;22;20433;-80
2023/07/31 14:27:14;;;;;;;3.20;2.80;;;24.20;99.90;;;;;;6251406;23;20413;-80
2023/07/31 14:30:00;;;;;;;3.07;2.77;;;24.60;99.90;;;;;;6251893;22;20416;-81
2023/07/31 14:32:44;;;;;;;3.53;2.87;;;24.60;99.90;;;;;;6250326;22;20470;-80
2023/07/31 14:35:32;;;;;;;2.97;2.70;;;24.70;99.90;;;;;;6250058;22;20437;-81
2023/07/31 15:02:32;;;;;;;4.10;3.10;;;25.10;99.90;;;;;;6099154;23;20438;-80
2023/07/31 15:08:10;;;;;;;2.90;2.70;;;25.40;99.90;;;;;;6223978;23;20420;-82
2023/07/31 15:10:58;;;;;;;4.37;3.97;;;25.50;99.90;;;;;;6257287;22;20405;-80
2023/07/31 15:13:37;;;;;;;4.30;3.17;;;25.30;99.90;;;;;;6255761;22;20409;-79
2023/07/31 15:16:20;;;;;;;3.40;2.90;;;25.30;99.90;;;;;;6259455;23;20417;-79
2023/07/31 15:19:18;;;;;;;;;;;;;;;;;;;;;
2023/07/31 15:22:09;;;;;;;4.27;2.60;;;25.30;99.90;;;;;;6258474;22;20435;-82
2023/07/31 15:24:56;;;;;;;3.43;3.13;;;25.00;99.90;;;;;;6255361;23;20514;-81
2023/07/31 15:27:55;;;;;;;4.20;2.80;;;25.10;99.90;;;;;;6256001;23;20413;-80
2023/07/31 15:31:17;;;;;;;2.80;2.50;;;25.40;99.90;;;;;;6254929;22;20412;-80
2023/07/31 15:34:15;;;;;;;3.70;3.40;;;25.70;99.90;;;;;;6255178;23;20824;-80
2023/07/31 15:36:52;;;;;;;3.00;2.50;;;25.50;99.90;;;;;;6255429;22;20405;-81
2023/07/31 15:42:33;;;;;;;4.17;3.20;;;25.40;99.90;;;;;;6244445;22;20855;-80
2023/07/31 15:45:10;;;;;;;3.27;2.73;;;25.40;99.90;;;;;;6257615;23;20417;-78
2023/07/31 15:48:02;;;;;;;5.30;3.53;;;25.50;99.90;;;;;;6255817;23;20504;-79
2023/07/31 15:50:45;;;;;;;3.90;3.03;;;25.30;99.90;;;;;;6255679;23;20394;-79
2023/07/31 15:53:19;;;;;;;3.03;2.83;;;25.30;99.90;;;;;;6258219;22;20419;-82
2023/07/31 15:56:42;;;;;;;3.67;2.80;;;25.80;99.90;;;;;;6255756;23;20794;-82
2023/07/31 16:02:44;;;;;;;3.20;2.90;;;26.00;99.90;;;;;;6240695;23;20449;-80
2023/07/31 16:05:26;;;;;;;3.93;2.90;;;26.40;99.90;;;;;;6255397;23;20497;-79
2023/07/31 16:11:46;;;;;;;3.73;3.00;;;26.40;99.90;;;;;;6252291;22;20416;-80
2023/07/31 16:14:42;;;;;;;3.00;2.80;;;26.30;99.90;;;;;;6250960;23;20389;-80
2023/07/31 16:17:18;;;;;;;4.77;2.83;;;26.50;99.90;;;;;;6250103;23;20405;-80
2023/07/31 16:20:06;;;;;;;3.70;2.93;;;26.60;99.90;;;;;;6247910;22;20401;-79
2023/07/31 16:25:36;;;;;;;3.00;2.70;;;26.10;99.90;;;;;;6241763;22;20512;-80
2023/07/31 16:28:31;;;;;;;4.50;3.10;;;25.90;99.90;;;;;;6245991;22;20516;-79
2023/07/31 16:31:10;;;;;;;3.20;2.90;;;25.90;99.90;;;;;;6246418;23;20914;-80
2023/07/31 16:33:58;;;;;;;2.90;2.70;;;25.40;99.90;;;;;;6249579;23;20408;-79
2023/07/31 16:36:44;;;;;;;4.23;3.20;;;25.10;99.90;;;;;;6253479;23;20500;-79
2023/07/31 16:39:39;;;;;;;5.20;3.10;;;25.20;99.90;;;;;;6251888;22;20421;-79
2023/07/31 16:42:43;;;;;;;3.07;2.77;;;25.30;99.90;;;;;;6241608;23;20501;-81
2023/07/31 16:45:29;;;;;;;4.30;3.27;;;25.10;99.90;;;;;;6249968;22;20506;-79
2023/07/31 16:48:27;;;;;;;;;;;;;;;;;;;;;
2023/07/31 16:51:06;;;;;;;3.20;2.70;;;24.50;99.90;;;;;;6250862;22;20405;-80
2023/07/31 16:53:54;;;;;;;3.20;2.90;;;24.20;99.90;;;;;;6248813;22;20417;-82
2023/07/31 16:56:38;;;;;;;3.77;2.60;;;24.10;99.90;;;;;;6249781;22;20597;-80
2023/07/31 16:59:21;;;;;;;3.10;2.73;;;24.10;99.90;;;;;;6249356;22;20419;-78
2023/07/31 17:01:58;;;;;;;3.30;3.00;;;23.90;99.90;;;;;;6251931;22;20443;-79
2023/07/31 17:05:01;;;;;;;4.33;3.47;;;23.80;99.90;;;;;;6251919;22;20495;-80
2023/07/31 17:08:16;;;;;;;4.37;2.90;;;23.80;99.90;;;;;;6258638;22;20716;-79
2023/07/31 17:14:16;;;;;;;3.40;3.10;;;23.70;99.90;;;;;;6249398;23;20404;-80
2023/07/31 17:17:08;;;;;;;3.57;2.50;;;23.80;99.90;;;;;;6258018;23;20492;-79
2023/07/31 17:20:11;;;;;;;3.20;2.90;;;23.80;99.90;;;;;;6259796;22;20409;-79
2023/07/31 17:23:16;;;;;;;3.40;3.10;;;23.70;99.90;;;;;;6257921;22;20433;-80
2023/07/31 17:26:27;;;;;;;4.60;3.53;;;23.60;99.90;;;;;;6260240;22;20973;-79
2023/07/31 17:29:24;;;;;;;4.00;3.60;;;23.50;99.90;;;;;;6260611;22;20412;-80
2023/07/31 17:32:26;;;;;;;3.83;2.87;;;23.30;99.90;;;;;;6257278;23;20655;-81
2023/07/31 17:35:03;;;;;;;6.23;3.20;;;23.40;99.90;;;;;;6257347;22;20512;-79
2023/07/31 17:37:31;;;;;;;4.57;2.90;;;23.30;99.90;;;;;;6256319;22;20405;-80
2023/07/31 17:40:11;;;;;;;3.90;3.30;;;23.30;99.90;;;;;;6258739;23;20409;-80
2023/07/31 17:43:10;;;;;;;3.97;3.10;;;23.30;99.90;;;;;;6260131;22;20464;-80
2023/07/31 17:45:54;;;;;;;4.87;3.33;;;23.40;99.90;;;;;;6255106;23;20440;-80
2023/07/31 17:48:33;;;;;;;3.20;2.90;;;23.30;99.90;;;;;;6255054;23;20440;-80
2023/07/31 17:51:05;;;;;;;3.80;2.80;;;23.40;99.90;;;;;;6254611;22;20401;-79
2023/07/31 17:53:56;;;;;;;3.93;3.00;;;23.30;99.90;;;;;;6255259;23;20405;-79
2023/07/31 17:56:51;;;;;;;4.33;3.40;;;23.30;99.90;;;;;;6257856;23;20461;-81
2023/07/31 17:59:55;;;;;;;5.67;3.43;;;23.30;99.90;;;;;;6256869;23;20440;-80
2023/07/31 18:02:35;;;;;;;3.93;3.53;;;23.40;99.90;;;;;;6257361;23;20452;-79
2023/07/31 18:05:28;;;;;;;6.53;3.50;;;23.40;99.90;;;;;;6254155;23;20497;-79
2023/07/31 18:08:22;;;;;;;3.10;2.87;;;23.50;99.90;;;;;;6257333;23;20417;-81
2023/07/31 18:11:31;;;;;;;4.13;3.07;;;23.20;99.90;;;;;;6255330;22;20413;-79
2023/07/31 18:17:33;;;;;;;5.20;3.80;;;23.10;99.90;;;;;;6220864;22;20448;-78
2023/07/31 18:23:39;;;;;;;4.53;3.37;;;22.90;99.90;;;;;;6222727;23;20485;-79
2023/07/31 18:26:26;;;;;;;5.07;4.30;;;22.90;99.90;;;;;;6252183;23;20433;-78
2023/07/31 18:29:24;;;;;;;4.10;3.67;;;23.00;99.90;;;;;;6253019;22;20492;-80
2023/07/31 18:32:18;;;;;;;3.93;3.53;;;23.10;99.90;;;;;;6256897;22;20475;-79
2023/07/31 18:35:16;;;;;;;4.47;3.33;;;23.10;99.90;;;;;;6254065;22;20429;-80
2023/07/31 18:38:04;;;;;;;3.40;2.90;;;23.00;99.90;;;;;;6256940;22;20500;-80
2023/07/31 18:44:21;;;;;;;4.70;3.50;;;23.00;99.90;;;;;;6214054;23;20412;-81
2023/07/31 18:47:37;;;;;;;6.13;3.40;;;22.90;99.90;;;;;;6249567;23;20444;-80
2023/07/31 18:50:40;;;;;;;4.10;3.70;;;22.80;99.90;;;;;;6258906;22;20484;-80
2023/07/31 18:59:49;;;;;;;4.10;3.70;;;22.60;99.90;;;;;;6244944;22;20488;-80
2023/07/31 19:02:55;;;;;;;4.90;4.27;;;22.60;99.90;;;;;;6261184;22;20491;-78
2023/07/31 19:05:45;;;;;;;3.77;3.47;;;22.40;99.90;;;;;;6256448;22;20528;-79
2023/07/31 19:08:42;;;;;;;6.03;3.97;;;22.20;99.90;;;;;;6254651;22;20417;-79
2023/07/31 19:11:39;;;;;;;4.70;4.03;;;22.10;99.90;;;;;;6253196;23;20413;-79
2023/07/31 19:14:25;;;;;;;5.13;4.10;;;22.00;99.90;;;;;;6253599;23;20436;-82
2023/07/31 19:21:02;;;;;;;5.37;4.27;;;21.80;99.90;;;;;;6248256;23;20472;-79
2023/07/31 19:23:39;;;;;;;4.53;4.13;;;21.60;99.90;;;;;;6257308;23;20489;-81
2023/07/31 19:26:49;;;;;;;3.90;3.50;;;21.30;99.90;;;;;;6257116;22;20816;-83
2023/07/31 19:33:17;;;;;;;6.00;4.30;;;21.00;99.90;;;;;;6237808;22;20416;-79
2023/07/31 19:36:09;;;;;;;9.27;4.30;;;21.10;99.90;;;;;;6254797;23;20512;-79
2023/07/31 19:42:29;;;;;;;6.27;4.70;;;20.60;99.90;;;;;;6256520;22;20429;-81
2023/07/31 19:48:35;;;;;;;5.00;4.57;;;20.30;99.90;;;;;;6256496;23;20418;-79
2023/07/31 19:51:37;;;;;;;6.77;4.37;;;20.30;99.90;;;;;;6256680;22;20418;-80
2023/07/31 20:41:09;;;;;;;5.00;4.00;;;19.60;99.90;;;;;;5881773;24;20492;-79
2023/07/31 21:04:35;;;;;;;6.00;4.60;;;19.30;99.90;;;;;;6158806;23;20399;-80
2023/07/31 21:07:42;;;;;;;;;;;;;;;;;;;;;
2023/07/31 21:17:11;;;;;;;5.37;4.87;;;19.10;99.90;;;;;;6143100;23;20412;-79
2023/07/31 21:19:57;;;;;;;5.23;4.70;;;19.10;99.90;;;;;;6161037;23;20412;-79
2023/07/31 21:22:36;;;;;;;5.50;4.60;;;19.10;99.90;;;;;;6163202;23;20443;-81
2023/07/31 21:25:16;;;;;;;5.43;4.60;;;19.10;99.90;;;;;;6164081;23;20427;-83
2023/07/31 21:40:03;;;;;;;4.97;4.20;;;19.00;99.90;;;;;;6161547;23;20905;-78
2023/07/31 22:05:17;;;;;;;5.30;4.80;;;18.80;99.90;;;;;;6148829;23;20503;-79
2023/07/31 22:07:57;;;;;;;5.10;4.40;;;18.80;99.90;;;;;;6164502;23;20411;-81
2023/07/31 22:10:54;;;;;;;6.43;4.60;;;18.70;99.90;;;;;;6165649;23;20411;-79
2023/07/31 22:16:29;;;;;;;6.50;4.50;;;18.70;99.90;;;;;;6162756;23;20439;-80
2023/07/31 22:19:29;;;;;;;4.80;4.30;;;18.70;99.90;;;;;;6167581;23;20420;-78
2023/07/31 22:25:49;;;;;;;5.00;4.30;;;18.70;99.90;;;;;;6166752;23;20424;-81
2023/07/31 22:28:29;;;;;;;5.00;4.20;;;18.70;99.90;;;;;;6166948;23;20415;-80
2023/07/31 22:31:11;;;;;;;5.30;4.10;;;18.70;99.90;;;;;;6166435;23;20961;-79
2023/07/31 22:34:13;;;;;;;5.10;4.17;;;18.70;99.90;;;;;;6166560;23;20408;-79
2023/07/31 22:37:14;;;;;;;4.90;4.40;;;18.70;99.90;;;;;;6156862;23;20427;-79
2023/07/31 22:40:25;;;;;;;5.90;5.27;;;18.70;99.90;;;;;;6136102;23;20422;-80
2023/07/31 22:43:08;;;;;;;4.90;4.27;;;18.70;99.90;;;;;;6161986;23;20440;-78
2023/07/31 22:58:17;;;;;;;6.57;4.10;;;18.70;99.90;;;;;;6101079;23;20643;-79
2023/07/31 23:18:57;;;;;;;6.03;3.77;;;18.80;99.90;;;;;;5843457;24;20407;-77
2023/07/31 23:29:03;;;;;;;5.53;3.93;;;18.90;99.90;;;;;;6007056;23;20463;-77
2023/07/31 23:35:19;;;;;;;;;;;;;;;;;;;;;
2023/07/31 23:38:26;;;;;;;4.47;3.90;;;18.90;99.90;;;;;;6165368;23;20384;-79
2023/07/31 23:41:19;;;;;;;5.97;3.70;;;18.90;99.90;;;;;;6152298;23;20412;-78
2023/07/31 23:47:38;;;;;;;4.70;4.20;;;18.90;99.90;;;;;;6149966;23;20443;-79
2023/07/31 23:59:59;;;;;;;5.20;3.70;;;18.80;99.90;;;;;;6130882;23;20405;-79
